createdAt,value
2023-05-25T00:01:43.529Z,81.05
2023-05-25T00:06:40.681Z,80.66
2023-05-25T00:09:07.801Z,80.58
2023-05-25T00:11:34.960Z,80.47
2023-05-25T00:14:01.581Z,80.31
2023-05-25T00:16:28.470Z,80.12
2023-05-25T00:18:57.017Z,80.13
2023-05-25T00:21:25.147Z,79.91
2023-05-25T00:23:51.624Z,80.02
2023-05-25T00:26:18.188Z,79.96
2023-05-25T00:28:44.775Z,79.95
2023-05-25T00:31:14.273Z,80.15
2023-05-25T00:33:41.164Z,80.47
2023-05-25T00:36:08.699Z,80.81
2023-05-25T00:38:37.567Z,81.13
2023-05-25T00:41:05.661Z,81.26
2023-05-25T00:43:34.449Z,81.27
2023-05-25T00:46:01.853Z,81.25
2023-05-25T00:48:29.242Z,81.38
2023-05-25T00:50:57.489Z,81.51
2023-05-25T00:53:25.285Z,81.44
2023-05-25T00:56:04.952Z,81.40
2023-05-25T00:58:33.345Z,81.59
2023-05-25T01:01:00.123Z,81.89
2023-05-25T01:03:29.333Z,82.00
2023-05-25T01:05:57.636Z,82.22
2023-05-25T01:08:24.631Z,82.23
2023-05-25T01:10:52.474Z,82.55
2023-05-25T01:13:19.639Z,82.64
2023-05-25T01:15:47.069Z,82.76
2023-05-25T01:18:14.966Z,83.05
2023-05-25T01:21:12.572Z,83.50
2023-05-25T01:23:43.573Z,84.01
2023-05-25T01:26:12.709Z,84.45
2023-05-25T01:28:42.541Z,84.85
2023-05-25T01:31:09.924Z,85.30
2023-05-25T01:33:36.751Z,85.61
2023-05-25T01:36:04.092Z,85.83
2023-05-25T01:38:31.261Z,85.95
2023-05-25T01:40:57.999Z,86.00
2023-05-25T01:43:26.821Z,85.78
2023-05-25T01:45:57.339Z,85.86
2023-05-25T01:48:25.945Z,85.84
2023-05-25T01:51:00.953Z,85.83
2023-05-25T01:53:48.644Z,85.89
2023-05-25T01:56:15.957Z,86.09
2023-05-25T01:58:44.265Z,86.27
2023-05-25T02:01:13.268Z,86.47
2023-05-25T02:03:41.327Z,86.89
2023-05-25T02:06:09.085Z,87.15
2023-05-25T02:08:35.862Z,87.34
2023-05-25T02:11:03.187Z,87.46
2023-05-25T02:13:31.893Z,87.79
2023-05-25T02:15:58.683Z,87.79
2023-05-25T02:18:26.110Z,87.80
2023-05-25T02:20:54.492Z,87.86
2023-05-25T02:23:21.803Z,87.83
2023-05-25T02:25:48.680Z,87.75
2023-05-25T02:28:16.496Z,87.68
2023-05-25T02:30:43.476Z,87.59
2023-05-25T02:33:12.449Z,87.51
2023-05-25T02:35:39.108Z,87.68
2023-05-25T02:38:07.078Z,87.77
2023-05-25T02:40:35.535Z,87.69
2023-05-25T02:43:02.385Z,87.77
2023-05-25T02:45:29.191Z,87.59
2023-05-25T02:47:55.958Z,87.33
2023-05-25T02:50:22.902Z,87.27
2023-05-25T02:52:51.702Z,87.03
2023-05-25T02:55:18.344Z,86.90
2023-05-25T02:57:45.495Z,86.73
2023-05-25T03:00:16.599Z,86.54
2023-05-25T03:02:46.204Z,86.26
2023-05-25T03:05:12.901Z,85.86
2023-05-25T03:07:41.554Z,85.43
2023-05-25T03:10:10.848Z,84.95
2023-05-25T03:12:37.794Z,84.35
2023-05-25T03:15:05.662Z,83.77
2023-05-25T03:17:36.122Z,83.33
2023-05-25T03:20:03.767Z,82.99
2023-05-25T03:22:32.252Z,82.70
2023-05-25T03:24:59.188Z,82.27
2023-05-25T03:27:26.042Z,81.80
2023-05-25T03:29:52.854Z,81.28
2023-05-25T03:32:19.981Z,80.79
2023-05-25T03:34:47.107Z,80.13
2023-05-25T03:37:15.092Z,79.64
2023-05-25T03:39:42.177Z,79.10
2023-05-25T03:42:08.849Z,78.56
2023-05-25T03:44:36.197Z,78.33
2023-05-25T03:47:04.274Z,78.15
2023-05-25T03:49:31.740Z,77.86
2023-05-25T03:52:01.434Z,77.79
2023-05-25T03:54:28.423Z,77.71
2023-05-25T03:56:56.312Z,77.35
2023-05-25T03:59:25.192Z,77.16
2023-05-25T04:01:51.827Z,77.07
2023-05-25T04:04:20.897Z,77.12
2023-05-25T04:06:48.606Z,77.00
2023-05-25T04:09:15.258Z,77.02
2023-05-25T04:11:41.905Z,77.17
2023-05-25T04:14:08.609Z,77.36
2023-05-25T04:16:40.799Z,77.26
2023-05-25T04:19:08.565Z,77.03
2023-05-25T04:21:36.433Z,77.03
2023-05-25T04:24:03.352Z,76.91
2023-05-25T04:26:31.458Z,77.00
2023-05-25T04:29:01.448Z,76.91
2023-05-25T04:31:45.364Z,77.03
2023-05-25T04:34:29.224Z,76.68
2023-05-25T04:37:08.555Z,75.99
2023-05-25T04:39:36.243Z,74.69
2023-05-25T04:42:04.199Z,73.12
2023-05-25T04:44:32.178Z,71.58
2023-05-25T04:47:00.863Z,70.35
2023-05-25T04:49:31.592Z,68.67
2023-05-25T04:51:58.833Z,66.83
2023-05-25T04:54:27.997Z,65.49
2023-05-25T04:56:57.700Z,64.16
2023-05-25T04:59:24.530Z,61.85
2023-05-25T05:01:51.186Z,60.36
2023-05-25T05:04:17.846Z,58.91
2023-05-25T05:06:45.825Z,57.63
2023-05-25T05:09:17.676Z,56.19
2023-05-25T05:11:45.674Z,54.43
2023-05-25T05:14:13.009Z,52.45
2023-05-25T05:16:41.672Z,51.79
2023-05-25T05:19:09.252Z,50.86
2023-05-25T05:21:37.140Z,49.03
2023-05-25T05:24:05.858Z,47.95
2023-05-25T05:26:41.300Z,46.80
2023-05-25T05:29:17.417Z,45.19
2023-05-25T05:31:47.403Z,44.11
2023-05-25T05:34:14.273Z,43.37
2023-05-25T05:36:55.875Z,43.04
2023-05-25T05:39:25.030Z,42.37
2023-05-25T05:41:51.916Z,41.96
2023-05-25T05:44:21.087Z,40.88
2023-05-25T05:46:48.355Z,39.52
2023-05-25T05:49:15.621Z,39.00
2023-05-25T05:51:45.044Z,38.33
2023-05-25T05:54:11.866Z,37.98
2023-05-25T05:56:39.066Z,37.75
2023-05-25T05:59:06.133Z,36.75
2023-05-25T06:01:33.285Z,36.51
2023-05-25T06:04:00.583Z,36.44
2023-05-25T06:06:28.289Z,36.14
2023-05-25T06:08:58.433Z,35.81
2023-05-25T06:11:26.128Z,34.62
2023-05-25T06:13:53.181Z,34.11
2023-05-25T06:16:20.031Z,33.89
2023-05-25T06:18:47.022Z,33.15
2023-05-25T06:21:13.823Z,32.32
2023-05-25T06:23:40.874Z,31.55
2023-05-25T06:26:08.320Z,31.16
2023-05-25T06:28:36.080Z,30.85
2023-05-25T06:31:03.275Z,30.03
2023-05-25T06:33:31.276Z,29.56
2023-05-25T06:36:00.030Z,29.10
2023-05-25T06:38:27.747Z,28.64
2023-05-25T06:40:54.691Z,27.96
2023-05-25T06:43:21.409Z,27.75
2023-05-25T06:46:17.359Z,27.20
2023-05-25T06:48:45.184Z,26.95
2023-05-25T06:51:11.801Z,26.32
2023-05-25T06:53:41.132Z,26.21
2023-05-25T06:56:08.703Z,25.96
2023-05-25T06:58:35.436Z,25.62
2023-05-25T07:01:02.387Z,25.37
2023-05-25T07:03:29.705Z,25.12
2023-05-25T07:05:56.233Z,24.69
2023-05-25T07:08:23.276Z,24.34
2023-05-25T07:10:50.550Z,24.07
2023-05-25T07:13:17.707Z,23.96
2023-05-25T07:15:44.824Z,23.70
2023-05-25T07:18:11.940Z,23.42
2023-05-25T07:20:43.188Z,23.15
2023-05-25T07:23:10.908Z,22.75
2023-05-25T07:25:37.954Z,22.83
2023-05-25T07:28:05.114Z,22.36
2023-05-25T07:30:32.152Z,22.02
2023-05-25T07:32:59.568Z,22.17
2023-05-25T07:35:26.576Z,21.75
2023-05-25T07:37:57.254Z,21.46
2023-05-25T07:40:24.045Z,21.17
2023-05-25T07:42:51.157Z,20.99
2023-05-25T07:45:18.142Z,20.63
2023-05-25T07:47:44.979Z,20.93
2023-05-25T07:50:11.788Z,20.69
2023-05-25T07:52:38.546Z,20.77
2023-05-25T07:55:06.403Z,20.44
2023-05-25T07:57:33.391Z,20.20
2023-05-25T08:00:00.262Z,20.00
2023-05-25T08:02:27.004Z,19.89
2023-05-25T08:04:53.819Z,19.81
2023-05-25T08:07:20.960Z,19.58
2023-05-25T08:09:47.678Z,19.38
2023-05-25T08:12:34.332Z,18.95
2023-05-25T08:15:01.293Z,18.43
2023-05-25T08:17:28.218Z,18.47
2023-05-25T08:19:55.859Z,18.10
2023-05-25T08:22:22.678Z,18.28
2023-05-25T08:24:49.456Z,18.38
2023-05-25T08:27:17.451Z,18.28
2023-05-25T08:29:44.395Z,18.25
2023-05-25T08:32:11.096Z,18.18
2023-05-25T08:34:38.353Z,17.18
2023-05-25T08:37:05.681Z,16.93
2023-05-25T08:39:34.791Z,17.35
2023-05-25T08:42:01.853Z,16.83
2023-05-25T08:44:28.817Z,16.09
2023-05-25T08:46:56.391Z,16.08
2023-05-25T08:49:23.502Z,16.16
2023-05-25T08:51:53.967Z,16.29
2023-05-25T08:54:50.861Z,15.97
2023-05-25T08:57:31.642Z,16.11
2023-05-25T09:00:18.003Z,15.69
2023-05-25T09:03:10.291Z,15.70
2023-05-25T09:05:38.153Z,15.42
2023-05-25T09:08:06.302Z,15.24
2023-05-25T09:10:36.717Z,15.12
2023-05-25T09:13:19.067Z,14.87
2023-05-25T09:15:48.425Z,14.95
2023-05-25T09:18:16.283Z,15.03
2023-05-25T09:20:46.181Z,15.05
2023-05-25T09:23:14.996Z,14.65
2023-05-25T09:25:41.816Z,14.69
2023-05-25T09:28:25.739Z,14.36
2023-05-25T09:30:54.064Z,14.73
2023-05-25T09:33:20.991Z,14.75
2023-05-25T09:35:47.753Z,15.00
2023-05-25T09:38:16.337Z,14.81
2023-05-25T09:40:43.880Z,14.16
2023-05-25T09:43:21.912Z,14.28
2023-05-25T09:45:55.580Z,14.10
2023-05-25T09:48:23.731Z,13.94
2023-05-25T09:50:50.980Z,14.63
2023-05-25T09:53:17.940Z,13.71
2023-05-25T09:58:18.312Z,14.11
2023-05-25T10:00:46.081Z,14.16
2023-05-25T10:03:14.615Z,13.86
2023-05-25T10:05:41.273Z,13.48
2023-05-25T10:08:08.789Z,13.79
2023-05-25T10:10:35.600Z,13.93
2023-05-25T10:13:02.498Z,13.36
2023-05-25T10:15:30.160Z,13.13
2023-05-25T10:17:57.239Z,13.27
2023-05-25T10:20:25.467Z,13.54
2023-05-25T10:23:12.711Z,13.43
2023-05-25T10:25:41.567Z,12.66
2023-05-25T10:28:28.606Z,12.73
2023-05-25T10:30:57.141Z,13.23
2023-05-25T10:33:23.866Z,13.10
2023-05-25T10:36:02.364Z,13.43
2023-05-25T10:38:35.728Z,13.61
2023-05-25T10:41:02.640Z,14.23
2023-05-25T10:43:29.306Z,14.96
2023-05-25T10:45:57.434Z,14.90
2023-05-25T10:48:28.909Z,15.29
2023-05-25T10:50:56.097Z,15.17
2023-05-25T10:53:23.146Z,15.30
2023-05-25T10:55:53.091Z,15.41
2023-05-25T10:58:21.340Z,15.73
2023-05-25T11:01:01.411Z,14.80
2023-05-25T11:04:11.297Z,14.72
2023-05-25T11:06:39.898Z,17.82
2023-05-25T11:09:06.618Z,19.91
2023-05-25T11:11:42.683Z,21.54
2023-05-25T11:14:23.195Z,22.69
2023-05-25T11:17:14.002Z,23.88
2023-05-25T11:19:40.805Z,24.58
2023-05-25T11:22:41.996Z,25.31
2023-05-25T11:25:37.388Z,25.48
2023-05-25T11:28:06.000Z,26.06
2023-05-25T11:30:33.115Z,26.06
2023-05-25T11:33:03.979Z,26.43
2023-05-25T11:35:33.348Z,26.84
2023-05-25T11:38:00.511Z,27.38
2023-05-25T11:40:30.897Z,27.98
2023-05-25T11:43:00.255Z,28.01
2023-05-25T11:45:32.919Z,28.09
2023-05-25T11:47:59.951Z,28.53
2023-05-25T11:50:27.737Z,29.37
2023-05-25T11:52:54.294Z,29.68
2023-05-25T11:55:20.979Z,30.05
2023-05-25T11:57:54.728Z,30.13
2023-05-25T12:00:26.330Z,29.99
2023-05-25T12:02:53.199Z,30.50
2023-05-25T12:05:23.387Z,30.85
2023-05-25T12:07:53.095Z,30.54
2023-05-25T12:10:21.977Z,30.57
2023-05-25T12:12:50.946Z,30.69
2023-05-25T12:15:24.099Z,30.79
2023-05-25T12:17:51.244Z,31.27
2023-05-25T12:20:18.059Z,31.44
2023-05-25T12:22:46.132Z,31.79
2023-05-25T12:25:13.635Z,31.65
2023-05-25T12:27:40.479Z,31.97
2023-05-25T12:30:08.805Z,31.91
2023-05-25T12:33:01.997Z,31.21
2023-05-25T12:35:31.547Z,30.98
2023-05-25T12:38:11.567Z,31.20
2023-05-25T12:40:39.740Z,31.09
2023-05-25T12:43:06.395Z,30.70
2023-05-25T12:45:39.180Z,30.91
2023-05-25T12:48:06.215Z,31.16
2023-05-25T12:50:33.235Z,31.39
2023-05-25T12:53:02.126Z,31.17
2023-05-25T12:55:30.480Z,30.61
2023-05-25T12:58:01.621Z,31.06
2023-05-25T13:00:31.482Z,30.73
2023-05-25T13:02:58.532Z,30.79
2023-05-25T13:05:29.379Z,30.69
2023-05-25T13:07:57.154Z,31.04
2023-05-25T13:10:24.312Z,31.24
2023-05-25T13:12:53.428Z,31.05
2023-05-25T13:15:23.348Z,31.08
2023-05-25T13:17:50.382Z,31.18
2023-05-25T13:20:18.556Z,31.04
2023-05-25T13:22:46.672Z,31.33
2023-05-25T13:25:14.135Z,31.26
2023-05-25T13:27:45.772Z,31.41
2023-05-25T13:30:15.519Z,31.10
2023-05-25T13:32:45.121Z,30.13
2023-05-25T13:35:17.909Z,30.20
2023-05-25T13:37:47.170Z,30.13
2023-05-25T13:40:14.276Z,29.78
2023-05-25T13:42:41.687Z,29.01
2023-05-25T13:45:09.436Z,28.81
2023-05-25T13:47:38.403Z,28.56
2023-05-25T13:50:06.806Z,28.97
2023-05-25T13:52:34.153Z,28.51
2023-05-25T13:55:01.318Z,28.98
2023-05-25T13:57:27.963Z,29.25
2023-05-25T13:59:54.810Z,29.20
2023-05-25T14:02:21.702Z,28.86
2023-05-25T14:04:48.483Z,28.27
2023-05-25T14:07:15.276Z,28.09
2023-05-25T14:09:41.922Z,27.96
2023-05-25T14:12:08.797Z,28.26
2023-05-25T14:14:35.853Z,28.44
2023-05-25T14:17:02.694Z,28.95
2023-05-25T14:19:29.751Z,29.37
2023-05-25T14:22:11.837Z,29.69
2023-05-25T14:24:40.126Z,30.29
2023-05-25T14:27:06.848Z,30.88
2023-05-25T14:29:33.949Z,31.03
2023-05-25T14:32:01.097Z,31.41
2023-05-25T14:34:28.942Z,31.45
2023-05-25T14:36:55.759Z,31.38
2023-05-25T14:39:22.531Z,31.81
2023-05-25T14:41:49.250Z,31.78
2023-05-25T14:44:15.960Z,31.82
2023-05-25T14:46:42.758Z,31.91
2023-05-25T14:49:09.874Z,32.22
2023-05-25T14:51:37.451Z,32.96
2023-05-25T14:54:05.898Z,33.31
2023-05-25T14:56:33.655Z,33.83
2023-05-25T14:59:02.772Z,34.11
2023-05-25T15:01:29.931Z,34.12
2023-05-25T15:03:56.995Z,34.59
2023-05-25T15:06:23.948Z,35.06
2023-05-25T15:08:50.901Z,35.52
2023-05-25T15:11:18.177Z,36.16
2023-05-25T15:13:45.398Z,37.02
2023-05-25T15:16:13.260Z,37.63
2023-05-25T15:18:40.265Z,38.23
2023-05-25T15:21:07.329Z,38.93
2023-05-25T15:23:34.076Z,39.17
2023-05-25T15:26:04.383Z,39.71
2023-05-25T15:28:31.352Z,39.68
2023-05-25T15:31:00.861Z,39.66
2023-05-25T15:33:44.482Z,39.59
2023-05-25T15:36:19.855Z,39.46
2023-05-25T15:38:48.566Z,39.43
2023-05-25T15:41:16.396Z,39.78
2023-05-25T15:43:53.950Z,39.96
2023-05-25T15:46:21.663Z,39.85
2023-05-25T15:48:48.661Z,39.77
2023-05-25T15:51:15.475Z,39.81
2023-05-25T15:53:43.064Z,40.04
2023-05-25T15:56:10.111Z,40.25
2023-05-25T15:58:37.161Z,40.50
2023-05-25T16:01:04.077Z,40.81
2023-05-25T16:03:30.999Z,40.89
2023-05-25T16:05:57.993Z,40.87
2023-05-25T16:08:25.367Z,41.11
2023-05-25T16:10:51.900Z,41.36
2023-05-25T16:13:18.715Z,41.31
2023-05-25T16:15:45.952Z,41.32
2023-05-25T16:18:12.737Z,41.59
2023-05-25T16:20:40.876Z,41.73
2023-05-25T16:23:08.140Z,41.57
2023-05-25T16:25:34.918Z,41.60
2023-05-25T16:28:01.993Z,41.95
2023-05-25T16:30:29.018Z,42.19
2023-05-25T16:32:55.858Z,42.22
2023-05-25T16:35:22.548Z,42.19
2023-05-25T16:37:49.225Z,42.40
2023-05-25T16:40:16.167Z,42.58
2023-05-25T16:42:43.074Z,42.74
2023-05-25T16:45:10.438Z,42.84
2023-05-25T16:47:37.193Z,42.63
2023-05-25T16:50:05.141Z,42.77
2023-05-25T16:52:32.202Z,42.87
2023-05-25T16:54:58.908Z,43.00
2023-05-25T16:57:26.208Z,42.84
2023-05-25T16:59:53.760Z,42.73
2023-05-25T17:02:20.662Z,42.83
2023-05-25T17:04:47.965Z,42.87
2023-05-25T17:07:14.761Z,43.05
2023-05-25T17:09:42.536Z,42.90
2023-05-25T17:12:09.479Z,42.92
2023-05-25T17:14:36.286Z,42.89
2023-05-25T17:17:03.292Z,42.89
2023-05-25T17:19:30.315Z,42.68
2023-05-25T17:21:56.980Z,42.78
2023-05-25T17:24:23.848Z,43.31
2023-05-25T17:26:51.183Z,43.38
2023-05-25T17:29:20.756Z,43.52
2023-05-25T17:31:48.876Z,43.98
2023-05-25T17:34:16.521Z,44.30
2023-05-25T17:36:43.851Z,44.50
2023-05-25T17:39:10.797Z,44.81
2023-05-25T17:41:37.649Z,44.94
2023-05-25T17:44:04.376Z,45.39
2023-05-25T17:46:31.427Z,45.61
2023-05-25T17:48:58.468Z,45.75
2023-05-25T17:51:25.546Z,46.07
2023-05-25T17:53:52.332Z,46.32
2023-05-25T17:56:19.346Z,46.66
2023-05-25T17:58:47.078Z,46.85
2023-05-25T18:01:14.801Z,46.90
2023-05-25T18:03:42.980Z,47.06
2023-05-25T18:06:09.829Z,47.28
2023-05-25T18:08:36.655Z,47.36
2023-05-25T18:11:03.525Z,47.62
2023-05-25T18:13:31.069Z,47.88
2023-05-25T18:15:57.878Z,48.16
2023-05-25T18:18:24.946Z,48.22
2023-05-25T18:20:51.781Z,48.36
2023-05-25T18:23:18.559Z,48.72
2023-05-25T18:25:47.501Z,48.75
2023-05-25T18:28:14.376Z,48.93
2023-05-25T18:30:44.269Z,48.96
2023-05-25T18:33:11.013Z,49.14
2023-05-25T18:35:37.945Z,49.19
2023-05-25T18:38:04.731Z,49.40
2023-05-25T18:40:31.752Z,49.37
2023-05-25T18:42:58.503Z,49.45
2023-05-25T18:45:25.559Z,49.66
2023-05-25T18:47:52.838Z,49.68
2023-05-25T18:50:20.158Z,49.67
2023-05-25T18:52:50.309Z,49.76
2023-05-25T18:55:18.162Z,49.92
2023-05-25T18:57:45.333Z,50.12
2023-05-25T19:00:13.283Z,50.24
2023-05-25T19:02:40.713Z,50.59
2023-05-25T19:05:10.822Z,50.79
2023-05-25T19:07:51.144Z,51.01
2023-05-25T19:10:27.119Z,51.17
2023-05-25T19:12:54.758Z,51.31
2023-05-25T19:15:21.671Z,51.42
2023-05-25T19:17:48.522Z,51.56
2023-05-25T19:20:15.640Z,51.69
2023-05-25T19:22:43.013Z,51.61
2023-05-25T19:25:10.072Z,51.76
2023-05-25T19:27:37.051Z,51.83
2023-05-25T19:30:04.534Z,51.88
2023-05-25T19:32:31.820Z,52.08
2023-05-25T19:34:59.041Z,52.32
2023-05-25T19:37:26.010Z,52.31
2023-05-25T19:39:52.994Z,52.55
2023-05-25T19:42:19.823Z,52.53
2023-05-25T19:44:46.747Z,52.61
2023-05-25T19:47:13.893Z,52.50
2023-05-25T19:49:40.835Z,52.68
2023-05-25T19:52:07.619Z,52.91
2023-05-25T19:54:34.545Z,53.01
2023-05-25T19:57:02.504Z,52.88
2023-05-25T19:59:30.662Z,53.12
2023-05-25T20:01:57.533Z,53.09
2023-05-25T20:04:24.990Z,53.19
2023-05-25T20:06:52.831Z,53.15
2023-05-25T20:09:24.078Z,52.99
2023-05-25T20:11:51.015Z,52.96
2023-05-25T20:14:19.999Z,53.16
2023-05-25T20:16:47.257Z,53.25
2023-05-25T20:19:14.243Z,53.34
2023-05-25T20:21:41.154Z,53.55
2023-05-25T20:24:07.821Z,53.47
2023-05-25T20:26:34.609Z,53.73
2023-05-25T20:29:01.521Z,53.81
2023-05-25T20:31:28.487Z,53.79
2023-05-25T20:33:55.400Z,53.78
2023-05-25T20:36:23.544Z,53.97
2023-05-25T20:38:50.380Z,53.97
2023-05-25T20:41:17.140Z,54.12
2023-05-25T20:43:44.165Z,54.21
2023-05-25T20:46:11.080Z,54.22
2023-05-25T20:48:38.770Z,54.20
2023-05-25T20:51:05.521Z,54.22
2023-05-25T20:53:32.278Z,54.34
2023-05-25T20:56:01.246Z,54.42
2023-05-25T20:58:28.192Z,54.35
2023-05-25T21:00:54.937Z,54.37
2023-05-25T21:03:22.591Z,54.50
2023-05-25T21:05:49.638Z,54.69
2023-05-25T21:08:16.485Z,54.83
2023-05-25T21:10:59.018Z,54.86
2023-05-25T21:13:26.047Z,54.90
2023-05-25T21:15:52.987Z,54.93
2023-05-25T21:18:20.924Z,55.17
2023-05-25T21:20:49.841Z,55.38
2023-05-25T21:23:16.685Z,55.57
2023-05-25T21:25:44.316Z,55.60
2023-05-25T21:28:11.415Z,55.65
2023-05-25T21:30:41.319Z,55.67
2023-05-25T21:33:08.229Z,55.69
2023-05-25T21:35:35.299Z,56.04
2023-05-25T21:38:02.076Z,56.63
2023-05-25T21:40:29.100Z,57.25
2023-05-25T21:42:55.644Z,57.77
2023-05-25T21:45:22.569Z,57.91
2023-05-25T21:47:49.376Z,58.14
2023-05-25T21:50:16.680Z,58.17
2023-05-25T21:52:43.501Z,58.07
2023-05-25T21:55:10.454Z,58.17
2023-05-25T21:57:37.900Z,58.47
2023-05-25T22:00:08.437Z,58.55
2023-05-25T22:02:44.249Z,58.39
2023-05-25T22:05:11.080Z,58.38
2023-05-25T22:07:37.878Z,58.32
2023-05-25T22:10:05.523Z,58.44
2023-05-25T22:12:34.495Z,58.61
2023-05-25T22:15:01.669Z,58.80
2023-05-25T22:17:28.534Z,59.01
2023-05-25T22:20:07.445Z,59.21
2023-05-25T22:22:36.934Z,59.57
2023-05-25T22:25:04.594Z,59.79
2023-05-25T22:27:32.485Z,60.06
2023-05-25T22:29:59.314Z,60.45
2023-05-25T22:32:26.793Z,60.67
2023-05-25T22:34:53.908Z,61.00
2023-05-25T22:37:20.656Z,61.40
2023-05-25T22:39:49.543Z,61.56
2023-05-25T22:42:16.177Z,61.89
2023-05-25T22:44:42.918Z,62.14
2023-05-25T22:47:09.791Z,62.55
2023-05-25T22:49:41.187Z,62.78
2023-05-25T22:52:10.826Z,63.11
2023-05-25T22:54:38.214Z,63.56
2023-05-25T22:57:06.270Z,63.60
2023-05-25T22:59:33.553Z,64.06
2023-05-25T23:02:00.349Z,64.60
2023-05-25T23:04:27.101Z,64.88
2023-05-25T23:06:53.772Z,65.37
2023-05-25T23:09:20.559Z,65.81
2023-05-25T23:11:47.411Z,65.94
2023-05-25T23:14:14.567Z,66.28
2023-05-25T23:16:41.593Z,66.70
2023-05-25T23:19:08.647Z,67.06
2023-05-25T23:21:36.443Z,67.20
2023-05-25T23:24:04.170Z,67.24
2023-05-25T23:26:31.056Z,67.45
2023-05-25T23:28:57.870Z,67.35
2023-05-25T23:31:25.246Z,67.27
2023-05-25T23:33:52.564Z,67.41
2023-05-25T23:36:20.428Z,67.37
2023-05-25T23:38:47.092Z,67.47
2023-05-25T23:41:18.056Z,67.52
2023-05-25T23:43:45.801Z,67.36
2023-05-25T23:46:16.703Z,67.33
2023-05-25T23:48:44.572Z,67.42
2023-05-25T23:51:11.739Z,67.42
2023-05-25T23:53:38.578Z,67.56
2023-05-25T23:56:05.707Z,67.69
2023-05-25T23:58:32.659Z,67.89
